Accueil
METAR-TAF:

METAR-TAF

Aéroports :

Aéroport de Saint-Pierre Pierrefonds

Saint-Pierre, Réunion

latitude: 21-20S, longitude: 055-29E, altitude: 52 m

Observation

Le bulletin a été fait il y a 24 minutes, à 19:00 UTC
Vent 6 kt de nord-est
Température 21°C
Humidité 60%
Pression 1019 hPa
Visibilité 10 km ou plus
Ciel couvert à une hauteur de 7400 ft

METAR: FMEP 131900Z AUTO 04006KT 9999 OVC074 21/13 Q1019

Heure: 23:24 (19:24 UTC)

Prévision

Le bulletin a été fait il y a 8 heures et 24 minutes, à 11:00 UTC
Prévision valable du 13 à 12 UTC au 13 à 21 UTC
Vent 10 kt de sud-est avec des rafales jusqu'à 20 kt
Visibilité 10 km ou plus
Quelques nuages à une hauteur de 3000 ft
Evoluant progressivement
du 13 à 15 UTC au 13 à 17 UTC
Vent 6 kt de nord/nord-est

TAF: FMEP 131100Z 1312/1321 13010G20KT 9999 FEW030 BECMG 1315/1317 03006KT

Observations et prévisions météorologiques de plus de 4000 aéroports (messages METAR et TAF).

Les stations disponibles sont représentées par des disques jaunes et rouges sur la carte.

Passer la souris dessus pour voir le nom de la station.

Cliquer dessus pour voir les observations et prévisions météorologiques.

Pour changer de carte: cliquez sur les boutons verts avec une croix noire pour zoomer, sur le bouton vert avec un tiret pour effectuer un zoom arrière, ou sur les flèches vertes pour les cartes adjacentes.


METAR-TAF: